Nearby METAR (Airport) Reports

 

KPRN - Greenville, Alabama, USA
Distance from station: WNW 17mi, 28km
Updated: Sun, 18-Feb-2018 2:06am CST
Overcast
Overcast
 Wind from NNW
Wind: NNW 8 mph , 13 km/h
Temperature: 63°F , 17°C
Dew Point: 57°F , 14°C
Humidity: 83%
Barometer: 30.15 inHg , 1021 hPa
Clouds: Overcast
Visibility: 10 miles , 16 km
Cloud details: Mostly cloudy 600 ft
Overcast 2500 ft
2018/02/18 08:06 KPRN 180806Z AUTO 34007KT 10SM BKN006 OVC025 17/14 A3015 RMK AO2 T01720139
KTOI - Troy, Alabama, USA
Distance from station: ENE 21mi, 34km
Updated: Sun, 18-Feb-2018 2:45am CST
Overcast
Overcast
 Wind from N
Wind: N 6 mph , 9 km/h
Temperature: 64°F , 18°C
Dew Point: 61°F , 16°C
Humidity: 88%
Barometer: 30.15 inHg , 1021 hPa
Clouds: Overcast
Visibility: 10 miles , 16 km
Cloud details: Few Clouds 2600 ft
Overcast 8000 ft
2018/02/18 08:45 KTOI 180845Z AUTO 35005KT 10SM FEW026 OVC080 18/16 A3015 RMK AO2 T01780156
K79J - Andalusia/Opp Ar, Alabama, USA
Distance from station: S 29mi, 47km
Updated: Sun, 18-Feb-2018 1:56am CST
Overcast
Overcast
 Wind from calm
Wind: Calm
Temperature: 66°F , 19°C
Dew Point: 63°F , 17°C
Humidity: 88%
Barometer: 30.13 inHg , 1020.3 hPa
Clouds: Overcast
Visibility: 8 miles , 13 km
Cloud details: Few Clouds 1100 ft
Overcast 8000 ft
2018/02/18 07:56 K79J 180756Z AUTO 00000KT 8SM FEW011 OVC080 19/17 A3013 RMK AO2 SLP200 T01940172
 
KMGM - Montgomery, Alabama, USA
Distance from station: N 39mi, 63km
Updated: Sun, 18-Feb-2018 2:01am CST
Overcast
Overcast
 Wind from NW
Wind: NW 8 mph , 13 km/h
Temperature: 63°F , 17°C
Dew Point: 57°F , 14°C
Humidity: 83%
Barometer: 30.16 inHg , 1021.3 hPa
Clouds: Overcast
Visibility: 10 miles , 16 km
Cloud details: Overcast 1800 ft
2018/02/18 08:01 KMGM 180801Z AUTO 32007KT 10SM OVC018 17/14 A3016 RMK AO2 RAE00 P0000 T01670144
KMXF - Maxwell Afb/Mgm, Alabama, USA
Distance from station: N 44mi, 70km
Updated: Sun, 18-Feb-2018 1:56am CST
Overcast
Overcast
 Wind from NW
Wind: NW 7 mph , 11 km/h
Temperature: 61°F , 16°C
Dew Point: 57°F , 14°C
Humidity: 88%
Barometer: 30.15 inHg , 1021 hPa
Clouds: Overcast
Visibility: 10 miles , 16 km
Cloud details: Few Clouds 700 ft
Overcast 1200 ft
2018/02/18 07:56 KMXF 180756Z AUTO 32006KT 10SM FEW007 OVC012 16/14 A3015 RMK AO2 OVC V BKN SLP211 T01630139 $
KLOR - Lowe Ahp/Ft. Ruc, Alabama, USA
Distance from station: SE 44mi, 71km
Updated: Sun, 18-Feb-2018 2:34am CST
Overcast
Overcast
 Wind from calm
Wind: Calm
Temperature: 63°F , 17°C
Dew Point: 63°F , 17°C
Humidity: 100%
Barometer: 30.14 inHg , 1020.7 hPa
Clouds: Overcast
Visibility: 10 miles , 16 km
Cloud details: Overcast 1400 ft
2018/02/18 08:34 KLOR 180834Z AUTO 00000KT 10SM OVC014 17/17 A3014 RMK AO2 CIG 014V018 OVC V BKN SLP188
 
KGZH - Evergreen, Alabama, USA
Distance from station: WSW 46mi, 75km
Updated: Sun, 18-Feb-2018 1:53am CST
Overcast
Overcast
 Wind from NNW
Wind: NNW 3 mph , 6 km/h
Temperature: 64°F , 18°C
Dew Point: 57°F , 14°C
Humidity: 78%
Barometer: 30.15 inHg , 1021 hPa
Clouds: Overcast
Visibility: 10 miles , 16 km
Cloud details: Overcast 2300 ft
2018/02/18 07:53 KGZH 180753Z AUTO 33003KT 10SM OVC023 18/14 A3015 RMK AO2 SLP208 T01830144
K0J4 - Florala Muni, Alabama, USA
Distance from station: S 47mi, 76km
Updated: Fri, 16-Feb-2018 9:16am CST
NOT Current
Partly cloudy
Partly cloudy
 Wind from varies
Wind: varies 3 mph , 6 km/h
Temperature: 70°F , 21°C
Dew Point: 63°F , 17°C
Humidity: 78%
Barometer: 30.22 inHg , 1023.4 hPa
Clouds: Partly cloudy
Visibility: 10 miles , 16 km
Cloud details: Few Clouds 1700 ft
Partly cloudy 2200 ft
Partly cloudy 2700 ft
2018/02/16 15:16 K0J4 161516Z AUTO VRB03KT 10SM FEW017 SCT022 SCT027 21/17 A3022 RMK AO2 RAB1459E02 P0000 T02110167
KOZR - Ozark/Cairns Aaf, Alabama, USA
Distance from station: SE 49mi, 78km
Updated: Sun, 18-Feb-2018 2:46am CST
Mist, Overcast
Mist, Overcast
 Wind from calm
Wind: Calm
Temperature: 64°F , 18°C
Dew Point: 64°F , 18°C
Humidity: 100%
Barometer: 30.15 inHg , 1021 hPa
Summary: Mist
Clouds: Overcast
Visibility: 1 1/2 miles , 2 km
Cloud details: Mostly cloudy 200 ft
Overcast 2100 ft
2018/02/18 08:46 KOZR 180846Z AUTO 00000KT 1 1/2SM BR BKN002 OVC021 18/18 A3015 RMK AO2 SLP210 $
 
KHEY - Ft Rucker/Hanche, Alabama, USA
Distance from station: ESE 49mi, 79km
Updated: Sun, 18-Feb-2018 2:34am CST
Mist, Overcast
Mist, Overcast
 Wind from calm
Wind: Calm
Temperature: 64°F , 18°C
Dew Point: 64°F , 18°C
Humidity: 100%
Barometer: 30.14 inHg , 1020.7 hPa
Summary: Mist
Clouds: Overcast
Visibility: 1 5/8 miles , 8 km
Cloud details: Overcast 200 ft
2018/02/18 08:34 KHEY 180834Z AUTO 00000KT 1 5/8SM BR OVC002 18/18 A3014 RMK AO2 VIS 1 5/8V2 1/2 SLP206 $
KDHN - Dothan, Alabama, USA
Distance from station: ESE 61mi, 97km
Updated: Sun, 18-Feb-2018 1:53am CST
Mist, Overcast
Mist, Overcast
 Wind from WSW
Wind: WSW 10 mph , 17 km/h
Temperature: 66°F , 19°C
Dew Point: 66°F , 19°C
Humidity: 100%
Barometer: 30.18 inHg , 1022 hPa
Summary: Mist
Clouds: Overcast
Visibility: 6 miles , 10 km
Cloud details: Overcast 300 ft
2018/02/18 07:53 KDHN 180753Z AUTO 24009KT 6SM BR OVC003 19/19 A3018 RMK AO2 SLP215 T01890189
KCEW - Crestview, Florida, USA
Distance from station: S 66mi, 107km
Updated: Sun, 18-Feb-2018 2:39am CST
Mist, Overcast
Mist, Overcast
 Wind from N
Wind: N 3 mph , 6 km/h
Temperature: 63°F , 17°C
Dew Point: 61°F , 16°C
Humidity: 94%
Barometer: 30.16 inHg , 1021.3 hPa
Summary: Mist
Clouds: Overcast
Visibility: 1 1/4 miles , 2 km
Cloud details: Mostly cloudy 100 ft
Overcast 1700 ft
2018/02/18 08:39 KCEW 180839Z AUTO 35003KT 1 1/4SM BR BKN001 OVC017 17/16 A3016 RMK AO2 T01670161 $
 
KEUF - Eufaula, Alabama, USA
Distance from station: ENE 73mi, 118km
Updated: Sun, 18-Feb-2018 1:58am CST
Overcast
Overcast
 Wind from calm
Wind: Calm
Temperature: 64°F , 18°C
Dew Point: 63°F , 17°C
Humidity: 94%
Barometer: 30.13 inHg , 1020.3 hPa
Clouds: Overcast
Visibility: 10 miles , 16 km
Cloud details: Overcast 8000 ft
2018/02/18 07:58 KEUF 180758Z AUTO 00000KT 10SM OVC080 18/17 A3013 RMK AO2 SLP197 T01780172
KJKA - Gulf Shores, Alabama, USA
Distance from station: SSW 132mi, 212km
Updated: Sun, 18-Feb-2018 2:35am CST
Fog, Mostly cloudy
Fog, Mostly cloudy
 Wind from calm
Wind: Calm
Temperature: 59°F , 15°C
Dew Point: 59°F , 15°C
Humidity: 100%
Barometer: 30.14 inHg , 1020.7 hPa
Summary: Fog
Clouds: Mostly cloudy
Visibility: 1/4 mile , 2 km
Cloud details: Mostly cloudy 500 ft
Mostly cloudy 1000 ft
2018/02/18 08:35 KJKA 180835Z AUTO 00000KT 1/4SM FG BKN005 BKN010 15/15 A3014 RMK AO2 T01490149
KLSF - Ft Benning/Colum, Georgia, USA
Distance from station: SNE 89mi, 143km
Updated: Sun, 18-Feb-2018 1:56am CST
Mostly cloudy
Mostly cloudy
 Wind from calm
Wind: Calm
Temperature: 61°F , 16°C
Dew Point: 61°F , 16°C
Humidity: 100%
Barometer: 30.13 inHg , 1020.3 hPa
Clouds: Mostly cloudy
Visibility: 10 miles , 16 km
Cloud details: Mostly cloudy 3100 ft
Mostly cloudy 7500 ft
2018/02/18 07:56 KLSF 180756Z AUTO 00000KT 10SM BKN031 BKN075 16/16 A3013 RMK AO2 SLP207 T01640164
 
KMOB - Mobile/Bates, Alabama, USA
Distance from station: SW 125mi, 202km
Updated: Sun, 18-Feb-2018 2:40am CST
Overcast
Overcast
 Wind from NNE
Wind: NNE 9 mph , 15 km/h
Temperature: 64°F , 18°C
Dew Point: 63°F , 17°C
Humidity: 94%
Barometer: 30.15 inHg , 1021 hPa
Clouds: Overcast
Visibility: 9 miles , 14 km
Cloud details: Mostly cloudy 800 ft
Overcast 9000 ft
2018/02/18 08:40 KMOB 180840Z AUTO 02008KT 9SM BKN008 OVC090 18/17 A3015 RMK AO2 T01830172
KNMM - Meridian Nas, Mississippi, USA
Distance from station: WNW 151mi, 243km
Updated: Sun, 18-Feb-2018 1:56am CST
Overcast
Overcast
 Wind from N
Wind: N 7 mph , 11 km/h
Temperature: 50°F , 10°C
Wind Chill: 47°F , 8°C
Dew Point: 48°F , 9°C
Humidity: 94%
Barometer: 30.21 inHg , 1023 hPa
Clouds: Overcast
Visibility: 10 miles , 16 km
Cloud details: Overcast 600 ft
2018/02/18 07:56 KNMM 180756Z AUTO 01006KT 10SM OVC006 10/09 A3021 RMK AO2 RAE0658 SLP240 P0000 T01000089 CHINO SOUTH VISNO SOUTH $
KQHY - Hurlbert (Ft Walton Bch), Florida, USA
Distance from station: S 94mi, 151km
Updated: Sun, 18-Feb-2018 1:56am CST
Clear
Clear
 Wind from calm
Wind: Calm
Temperature: 68°F , 20°C
Dew Point: 66°F , 19°C
Humidity: 94%
Barometer: 30.14 inHg , 1020.7 hPa
Clouds: Clear
Visibility: 9 miles , 14 km
2018/02/18 07:56 KQHY 180756Z AUTO 00000KT 9SM CLR 20/19 A3014 RMK AO2 SLP213 T01950194 PWINO $
 
KTCL - Tuscaloosa, Alabama, USA
Distance from station: NNW 129mi, 207km
Updated: Sun, 18-Feb-2018 1:53am CST
Overcast
Overcast
 Wind from NNE
Wind: NNE 12 mph , 19 km/h
Temperature: 52°F , 11°C
Dew Point: 48°F , 9°C
Humidity: 88%
Barometer: 30.22 inHg , 1023.4 hPa
Clouds: Overcast
Visibility: 10 miles , 16 km
Cloud details: Overcast 1100 ft
2018/02/18 07:53 KTCL 180753Z AUTO 03010KT 10SM OVC011 11/09 A3022 RMK AO2 SLP232 T01060094
KECP - Panama City, Florida, USA
Distance from station: SSE 122mi, 196km
Updated: Sun, 18-Feb-2018 2:46am CST
Mist, Few clouds
Mist, Few clouds
 Wind from calm
Wind: Calm
Temperature: 63°F , 17°C
Dew Point: 61°F , 16°C
Humidity: 94%
Barometer: 30.14 inHg , 1020.7 hPa
Summary: Mist
Clouds: Few Clouds
Visibility: 1 1/4 miles , 2 km
Cloud details: Few Clouds 300 ft
2018/02/18 08:46 KECP 180846Z AUTO 00000KT 1 1/4SM BR FEW003 17/16 A3014 RMK AO2 VIS 1/2V3 T01670161
KCBM - Columbus Afb, Mississippi, USA
Distance from station: NW 175mi, 282km
Updated: Sun, 18-Feb-2018 2:26am CST
Overcast
Overcast
 Wind from NNE
Wind: NNE 3 mph , 6 km/h
Temperature: 48°F , 9°C
Dew Point: 46°F , 8°C
Humidity: 94%
Barometer: 30.23 inHg , 1023.7 hPa
Clouds: Overcast
Visibility: 10 miles , 16 km
Cloud details: Overcast 1500 ft
2018/02/18 08:26 KCBM 180826Z AUTO 02003KT 10SM OVC015 09/08 A3023 RMK AO2 SLP240 $
 
KBHM - Birmingham, Alabama, USA
Distance from station: N 132mi, 212km
Updated: Sun, 18-Feb-2018 1:53am CST
Overcast
Overcast
 Wind from NNE
Wind: NNE 8 mph , 13 km/h
Temperature: 48°F , 9°C
Wind Chill: 44°F , 7°C
Dew Point: 46°F , 8°C
Humidity: 94%
Barometer: 30.23 inHg , 1023.7 hPa
Clouds: Overcast
Visibility: 10 miles , 16 km
Cloud details: Overcast 800 ft
2018/02/18 07:53 KBHM 180753Z 02007KT 10SM OVC008 09/08 A3023 RMK AO2 SLP234 T00940078
KAAF - Apalachicola, Florida, USA
Distance from station: SSE 156mi, 250km
Updated: Sun, 18-Feb-2018 1:53am CST
Mostly cloudy
Mostly cloudy
 Wind from SSW
Wind: SSW 8 mph , 13 km/h
Temperature: 70°F , 21°C
Dew Point: 70°F , 21°C
Humidity: 100%
Barometer: 30.14 inHg , 1020.7 hPa
Clouds: Mostly cloudy
Visibility: 10 miles , 16 km
Cloud details: Mostly cloudy 8000 ft
2018/02/18 07:53 KAAF 180753Z AUTO 20007KT 10SM BKN080 21/21 A3014 RMK AO2 SLP207 T02060206 $
KATL - Atlanta, Georgia, USA
Distance from station: NE 177mi, 287km
Updated: Sun, 18-Feb-2018 1:52am CST
Mostly cloudy
Mostly cloudy
 Wind from NW
Wind: NW 10 mph , 17 km/h
Temperature: 55°F , 13°C
Dew Point: 54°F , 12°C
Humidity: 94%
Barometer: 30.15 inHg , 1021 hPa
Clouds: Mostly cloudy
Visibility: 10 miles , 16 km
Cloud details: Few Clouds 1000 ft
Partly cloudy 4800 ft
Mostly cloudy 8500 ft
Mostly cloudy 20000 ft
2018/02/18 07:52 KATL 180752Z 32009KT 10SM FEW010 SCT048 BKN085 BKN200 13/12 A3015 RMK AO2 RAE02 SLP204 P0000 T01330117
 
KGPT - Gulfport, Mississippi, USA
Distance from station: SW 192mi, 309km
Updated: Sun, 18-Feb-2018 1:53am CST
Partly cloudy
Partly cloudy
 Wind from calm
Wind: Calm
Temperature: 64°F , 18°C
Dew Point: 63°F , 17°C
Humidity: 94%
Barometer: 30.13 inHg , 1020.3 hPa
Clouds: Partly cloudy
Visibility: 10 miles , 16 km
Cloud details: Partly cloudy 9000 ft
2018/02/18 07:53 KGPT 180753Z AUTO 00000KT 10SM SCT090 18/17 A3013 RMK AO2 SLP201 T01780167
KNEW - New Orleans/Lake, Louisiana, USA
Distance from station: SW 255mi, 410km
Updated: Sun, 18-Feb-2018 1:53am CST
Mist, Mostly cloudy
Mist, Mostly cloudy
 Wind from SW
Wind: SW 6 mph , 9 km/h
Temperature: 66°F , 19°C
Dew Point: 64°F , 18°C
Humidity: 94%
Barometer: 30.14 inHg , 1020.7 hPa
Summary: Mist
Clouds: Mostly cloudy
Visibility: 5 miles , 8 km
Cloud details: Few Clouds 2000 ft
Mostly cloudy 4200 ft
2018/02/18 07:53 KNEW 180753Z AUTO 23005KT 5SM BR FEW020 BKN042 19/18 A3014 RMK AO2 SLP199 T01890183 $
KP92 - Salt Point, Louisiana, USA
Distance from station: SW 347mi, 559km
Updated: Sun, 18-Feb-2018 1:53am CST

 Wind from calm
Wind: Calm
Temperature: 64°F , 18°C
Dew Point: 64°F , 18°C
Humidity: 100%
Barometer: 30.12 inHg , 1020 hPa
2018/02/18 07:53 KP92 180753Z AUTO 00000KT 18/18 A3012 RMK AO1 SLP200 T01830183 $